sensor_id;sensor_type;location;lat;lon;timestamp;temperature;humidity
16635;DHT22;8431;52.458;9.998;2022-09-09T00:01:05;13.10;99.90
16635;DHT22;8431;52.458;9.998;2022-09-09T00:03:40;13.00;99.90
16635;DHT22;8431;52.458;9.998;2022-09-09T00:06:13;13.00;99.90
16635;DHT22;8431;52.458;9.998;2022-09-09T00:08:53;13.00;99.90
16635;DHT22;8431;52.458;9.998;2022-09-09T00:11:29;13.00;99.90
16635;DHT22;8431;52.458;9.998;2022-09-09T00:14:00;13.00;99.90
16635;DHT22;8431;52.458;9.998;2022-09-09T00:16:32;13.00;99.90
16635;DHT22;8431;52.458;9.998;2022-09-09T00:19:05;12.90;99.90
16635;DHT22;8431;52.458;9.998;2022-09-09T00:21:36;12.90;99.90
16635;DHT22;8431;52.458;9.998;2022-09-09T00:24:11;12.80;99.90
16635;DHT22;8431;52.458;9.998;2022-09-09T00:26:45;12.70;99.90
16635;DHT22;8431;52.458;9.998;2022-09-09T00:29:23;12.70;99.90
16635;DHT22;8431;52.458;9.998;2022-09-09T00:31:55;12.60;99.90
16635;DHT22;8431;52.458;9.998;2022-09-09T00:34:26;12.50;99.90
16635;DHT22;8431;52.458;9.998;2022-09-09T00:36:54;12.50;99.90
16635;DHT22;8431;52.458;9.998;2022-09-09T00:39:27;12.50;99.90
16635;DHT22;8431;52.458;9.998;2022-09-09T00:42:08;12.50;99.90
16635;DHT22;8431;52.458;9.998;2022-09-09T00:44:38;12.50;99.90
16635;DHT22;8431;52.458;9.998;2022-09-09T00:47:16;12.50;99.90
16635;DHT22;8431;52.458;9.998;2022-09-09T00:49:58;12.50;99.90
16635;DHT22;8431;52.458;9.998;2022-09-09T00:52:39;12.60;99.90
16635;DHT22;8431;52.458;9.998;2022-09-09T00:55:13;12.60;99.90
16635;DHT22;8431;52.458;9.998;2022-09-09T00:57:46;12.50;99.90
16635;DHT22;8431;52.458;9.998;2022-09-09T01:00:21;12.60;99.90
16635;DHT22;8431;52.458;9.998;2022-09-09T01:03:06;12.60;99.90
16635;DHT22;8431;52.458;9.998;2022-09-09T01:05:53;12.50;99.90
16635;DHT22;8431;52.458;9.998;2022-09-09T01:08:35;12.50;99.90
16635;DHT22;8431;52.458;9.998;2022-09-09T01:11:04;12.50;99.90
16635;DHT22;8431;52.458;9.998;2022-09-09T01:13:35;12.50;99.90
16635;DHT22;8431;52.458;9.998;2022-09-09T01:16:04;12.40;99.90
16635;DHT22;8431;52.458;9.998;2022-09-09T01:18:34;12.40;99.90
16635;DHT22;8431;52.458;9.998;2022-09-09T01:21:08;12.40;99.90
16635;DHT22;8431;52.458;9.998;2022-09-09T01:23:56;12.40;99.90
16635;DHT22;8431;52.458;9.998;2022-09-09T01:26:30;12.40;99.90
16635;DHT22;8431;52.458;9.998;2022-09-09T01:28:59;12.40;99.90
16635;DHT22;8431;52.458;9.998;2022-09-09T01:31:28;12.40;99.90
16635;DHT22;8431;52.458;9.998;2022-09-09T01:33:57;12.50;99.90
16635;DHT22;8431;52.458;9.998;2022-09-09T01:36:32;12.50;99.90
16635;DHT22;8431;52.458;9.998;2022-09-09T01:39:02;12.50;99.90
16635;DHT22;8431;52.458;9.998;2022-09-09T01:41:30;12.50;99.90
16635;DHT22;8431;52.458;9.998;2022-09-09T01:43:57;12.40;99.90
16635;DHT22;8431;52.458;9.998;2022-09-09T01:46:25;12.40;99.90
16635;DHT22;8431;52.458;9.998;2022-09-09T01:48:52;12.30;99.90
16635;DHT22;8431;52.458;9.998;2022-09-09T01:51:20;12.30;99.90
16635;DHT22;8431;52.458;9.998;2022-09-09T01:53:47;12.30;99.90
16635;DHT22;8431;52.458;9.998;2022-09-09T01:56:24;12.30;99.90
16635;DHT22;8431;52.458;9.998;2022-09-09T01:59:07;12.20;99.90
16635;DHT22;8431;52.458;9.998;2022-09-09T02:01:57;12.20;99.90
16635;DHT22;8431;52.458;9.998;2022-09-09T02:04:36;12.30;99.90
16635;DHT22;8431;52.458;9.998;2022-09-09T02:07:09;12.30;99.90
16635;DHT22;8431;52.458;9.998;2022-09-09T02:09:39;12.40;99.90
16635;DHT22;8431;52.458;9.998;2022-09-09T02:12:11;12.40;99.90
16635;DHT22;8431;52.458;9.998;2022-09-09T02:14:46;12.40;99.90
16635;DHT22;8431;52.458;9.998;2022-09-09T02:17:16;12.40;99.90
16635;DHT22;8431;52.458;9.998;2022-09-09T02:19:48;12.30;99.90
16635;DHT22;8431;52.458;9.998;2022-09-09T02:22:18;12.30;99.90
16635;DHT22;8431;52.458;9.998;2022-09-09T02:24:47;12.30;99.90
16635;DHT22;8431;52.458;9.998;2022-09-09T02:27:16;12.20;99.90
16635;DHT22;8431;52.458;9.998;2022-09-09T02:29:46;12.20;99.90
16635;DHT22;8431;52.458;9.998;2022-09-09T02:32:17;12.20;99.90
16635;DHT22;8431;52.458;9.998;2022-09-09T02:34:48;12.20;99.90
16635;DHT22;8431;52.458;9.998;2022-09-09T02:37:18;12.20;99.90
16635;DHT22;8431;52.458;9.998;2022-09-09T02:39:46;12.10;99.90
16635;DHT22;8431;52.458;9.998;2022-09-09T02:42:13;12.10;99.90
16635;DHT22;8431;52.458;9.998;2022-09-09T02:44:41;12.20;99.90
16635;DHT22;8431;52.458;9.998;2022-09-09T02:47:20;12.20;99.90
16635;DHT22;8431;52.458;9.998;2022-09-09T02:50:00;12.20;99.90
16635;DHT22;8431;52.458;9.998;2022-09-09T02:52:38;12.30;99.90
16635;DHT22;8431;52.458;9.998;2022-09-09T02:55:10;12.30;99.90
16635;DHT22;8431;52.458;9.998;2022-09-09T02:57:40;12.40;99.90
16635;DHT22;8431;52.458;9.998;2022-09-09T03:00:09;12.30;99.90
16635;DHT22;8431;52.458;9.998;2022-09-09T03:02:38;12.30;99.90
16635;DHT22;8431;52.458;9.998;2022-09-09T03:05:06;12.20;99.90
16635;DHT22;8431;52.458;9.998;2022-09-09T03:11:21;12.10;99.90
16635;DHT22;8431;52.458;9.998;2022-09-09T03:13:48;12.10;99.90
16635;DHT22;8431;52.458;9.998;2022-09-09T03:16:15;12.20;99.90
16635;DHT22;8431;52.458;9.998;2022-09-09T03:18:44;12.30;99.90
16635;DHT22;8431;52.458;9.998;2022-09-09T03:21:11;12.30;99.90
16635;DHT22;8431;52.458;9.998;2022-09-09T03:23:39;12.30;99.90
16635;DHT22;8431;52.458;9.998;2022-09-09T03:26:06;12.40;99.90
16635;DHT22;8431;52.458;9.998;2022-09-09T03:28:33;12.50;99.90
16635;DHT22;8431;52.458;9.998;2022-09-09T03:31:01;12.60;99.90
16635;DHT22;8431;52.458;9.998;2022-09-09T03:33:28;12.70;99.90
16635;DHT22;8431;52.458;9.998;2022-09-09T03:35:57;12.80;99.90
16635;DHT22;8431;52.458;9.998;2022-09-09T03:38:24;12.90;99.90
16635;DHT22;8431;52.458;9.998;2022-09-09T03:40:53;12.90;99.90
16635;DHT22;8431;52.458;9.998;2022-09-09T03:43:26;12.90;99.90
16635;DHT22;8431;52.458;9.998;2022-09-09T03:45:54;13.00;99.90
16635;DHT22;8431;52.458;9.998;2022-09-09T03:48:22;13.00;99.90
16635;DHT22;8431;52.458;9.998;2022-09-09T03:50:51;13.00;99.90
16635;DHT22;8431;52.458;9.998;2022-09-09T03:53:22;13.10;99.90
16635;DHT22;8431;52.458;9.998;2022-09-09T03:55:51;13.10;99.90
16635;DHT22;8431;52.458;9.998;2022-09-09T03:58:20;13.10;99.90
16635;DHT22;8431;52.458;9.998;2022-09-09T04:01:00;13.10;99.90
16635;DHT22;8431;52.458;9.998;2022-09-09T04:03:28;13.20;99.90
16635;DHT22;8431;52.458;9.998;2022-09-09T04:05:59;13.20;99.90
16635;DHT22;8431;52.458;9.998;2022-09-09T04:08:29;13.20;99.90
16635;DHT22;8431;52.458;9.998;2022-09-09T04:10:57;13.30;99.90
16635;DHT22;8431;52.458;9.998;2022-09-09T04:13:26;13.30;99.90
16635;DHT22;8431;52.458;9.998;2022-09-09T04:15:54;13.30;99.90
16635;DHT22;8431;52.458;9.998;2022-09-09T04:18:21;13.30;99.90
16635;DHT22;8431;52.458;9.998;2022-09-09T04:20:49;13.30;99.90
16635;DHT22;8431;52.458;9.998;2022-09-09T04:23:17;13.30;99.90
16635;DHT22;8431;52.458;9.998;2022-09-09T04:25:51;13.30;99.90
16635;DHT22;8431;52.458;9.998;2022-09-09T04:28:20;13.20;99.90
16635;DHT22;8431;52.458;9.998;2022-09-09T04:30:47;13.20;99.90
16635;DHT22;8431;52.458;9.998;2022-09-09T04:33:15;13.20;99.90
16635;DHT22;8431;52.458;9.998;2022-09-09T04:35:45;13.20;99.90
16635;DHT22;8431;52.458;9.998;2022-09-09T04:38:16;13.20;99.90
16635;DHT22;8431;52.458;9.998;2022-09-09T04:40:45;13.20;99.90
16635;DHT22;8431;52.458;9.998;2022-09-09T04:43:15;13.20;99.90
16635;DHT22;8431;52.458;9.998;2022-09-09T04:45:42;13.20;99.90
16635;DHT22;8431;52.458;9.998;2022-09-09T04:48:10;13.20;99.90
16635;DHT22;8431;52.458;9.998;2022-09-09T04:50:37;13.30;99.90
16635;DHT22;8431;52.458;9.998;2022-09-09T04:53:05;13.30;99.90
16635;DHT22;8431;52.458;9.998;2022-09-09T04:55:34;13.40;99.90
16635;DHT22;8431;52.458;9.998;2022-09-09T04:58:03;13.40;99.90
16635;DHT22;8431;52.458;9.998;2022-09-09T05:00:49;13.40;99.90
16635;DHT22;8431;52.458;9.998;2022-09-09T05:03:17;13.50;99.90
16635;DHT22;8431;52.458;9.998;2022-09-09T05:05:44;13.50;99.90
16635;DHT22;8431;52.458;9.998;2022-09-09T05:08:12;13.50;99.90
16635;DHT22;8431;52.458;9.998;2022-09-09T05:10:39;13.60;99.90
16635;DHT22;8431;52.458;9.998;2022-09-09T05:13:07;13.60;99.90
16635;DHT22;8431;52.458;9.998;2022-09-09T05:15:34;13.60;99.90
16635;DHT22;8431;52.458;9.998;2022-09-09T05:18:23;13.70;99.90
16635;DHT22;8431;52.458;9.998;2022-09-09T05:20:50;13.70;99.90
16635;DHT22;8431;52.458;9.998;2022-09-09T05:23:17;13.70;99.90
16635;DHT22;8431;52.458;9.998;2022-09-09T05:25:54;13.70;99.90
16635;DHT22;8431;52.458;9.998;2022-09-09T05:28:23;13.80;99.90
16635;DHT22;8431;52.458;9.998;2022-09-09T05:30:58;13.80;99.90
16635;DHT22;8431;52.458;9.998;2022-09-09T05:33:30;13.90;99.90
16635;DHT22;8431;52.458;9.998;2022-09-09T05:35:59;13.90;99.90
16635;DHT22;8431;52.458;9.998;2022-09-09T05:38:33;14.00;99.90
16635;DHT22;8431;52.458;9.998;2022-09-09T05:41:02;14.00;99.90
16635;DHT22;8431;52.458;9.998;2022-09-09T05:43:30;14.10;99.90
16635;DHT22;8431;52.458;9.998;2022-09-09T05:46:03;14.10;99.90
16635;DHT22;8431;52.458;9.998;2022-09-09T05:48:34;14.10;99.90
16635;DHT22;8431;52.458;9.998;2022-09-09T05:51:01;14.20;99.90
16635;DHT22;8431;52.458;9.998;2022-09-09T05:53:29;14.20;99.90
16635;DHT22;8431;52.458;9.998;2022-09-09T05:56:02;14.20;99.90
16635;DHT22;8431;52.458;9.998;2022-09-09T05:58:32;14.20;99.90
16635;DHT22;8431;52.458;9.998;2022-09-09T06:01:03;14.30;99.90
16635;DHT22;8431;52.458;9.998;2022-09-09T06:03:39;14.50;99.90
16635;DHT22;8431;52.458;9.998;2022-09-09T06:06:17;14.50;99.90
16635;DHT22;8431;52.458;9.998;2022-09-09T06:08:51;14.50;99.90
16635;DHT22;8431;52.458;9.998;2022-09-09T06:11:19;14.50;99.90
16635;DHT22;8431;52.458;9.998;2022-09-09T06:13:47;14.50;99.90
16635;DHT22;8431;52.458;9.998;2022-09-09T06:16:18;14.50;99.90
16635;DHT22;8431;52.458;9.998;2022-09-09T06:18:46;14.50;99.90
16635;DHT22;8431;52.458;9.998;2022-09-09T06:21:32;14.50;99.90
16635;DHT22;8431;52.458;9.998;2022-09-09T06:24:10;14.60;99.90
16635;DHT22;8431;52.458;9.998;2022-09-09T06:27:12;14.70;99.90
16635;DHT22;8431;52.458;9.998;2022-09-09T06:29:56;14.80;99.90
16635;DHT22;8431;52.458;9.998;2022-09-09T06:32:23;14.90;99.90
16635;DHT22;8431;52.458;9.998;2022-09-09T06:34:52;15.00;99.90
16635;DHT22;8431;52.458;9.998;2022-09-09T06:37:22;15.10;99.90
16635;DHT22;8431;52.458;9.998;2022-09-09T06:39:49;15.30;99.90
16635;DHT22;8431;52.458;9.998;2022-09-09T06:42:23;15.40;99.90
16635;DHT22;8431;52.458;9.998;2022-09-09T06:44:52;15.50;99.90
16635;DHT22;8431;52.458;9.998;2022-09-09T06:47:20;15.50;99.90
16635;DHT22;8431;52.458;9.998;2022-09-09T06:49:47;15.50;99.90
16635;DHT22;8431;52.458;9.998;2022-09-09T06:52:19;15.50;99.90
16635;DHT22;8431;52.458;9.998;2022-09-09T06:54:46;15.70;99.90
16635;DHT22;8431;52.458;9.998;2022-09-09T06:57:18;15.80;99.90
16635;DHT22;8431;52.458;9.998;2022-09-09T06:59:46;16.00;99.90
16635;DHT22;8431;52.458;9.998;2022-09-09T07:02:14;16.20;99.90
16635;DHT22;8431;52.458;9.998;2022-09-09T07:04:41;16.30;99.90
16635;DHT22;8431;52.458;9.998;2022-09-09T07:07:11;16.40;99.90
16635;DHT22;8431;52.458;9.998;2022-09-09T07:09:42;16.50;99.90
16635;DHT22;8431;52.458;9.998;2022-09-09T07:12:12;16.50;99.90
16635;DHT22;8431;52.458;9.998;2022-09-09T07:14:39;16.60;99.90
16635;DHT22;8431;52.458;9.998;2022-09-09T07:17:06;16.70;99.90
16635;DHT22;8431;52.458;9.998;2022-09-09T07:19:33;16.60;99.90
16635;DHT22;8431;52.458;9.998;2022-09-09T07:22:00;16.70;99.90
16635;DHT22;8431;52.458;9.998;2022-09-09T07:24:28;16.80;99.90
16635;DHT22;8431;52.458;9.998;2022-09-09T07:26:57;16.80;99.90
16635;DHT22;8431;52.458;9.998;2022-09-09T07:29:25;16.90;99.90
16635;DHT22;8431;52.458;9.998;2022-09-09T07:31:52;17.00;99.90
16635;DHT22;8431;52.458;9.998;2022-09-09T07:34:19;17.00;99.90
16635;DHT22;8431;52.458;9.998;2022-09-09T07:36:48;17.10;99.90
16635;DHT22;8431;52.458;9.998;2022-09-09T07:39:21;17.00;99.90
16635;DHT22;8431;52.458;9.998;2022-09-09T07:41:50;16.90;99.90
16635;DHT22;8431;52.458;9.998;2022-09-09T07:44:21;17.00;99.90
16635;DHT22;8431;52.458;9.998;2022-09-09T07:46:49;17.00;99.90
16635;DHT22;8431;52.458;9.998;2022-09-09T07:49:16;17.10;99.90
16635;DHT22;8431;52.458;9.998;2022-09-09T07:51:46;16.90;99.90
16635;DHT22;8431;52.458;9.998;2022-09-09T07:54:15;16.90;99.90
16635;DHT22;8431;52.458;9.998;2022-09-09T07:56:43;16.80;99.90
16635;DHT22;8431;52.458;9.998;2022-09-09T07:59:10;16.70;99.90
16635;DHT22;8431;52.458;9.998;2022-09-09T08:01:40;16.60;99.90
16635;DHT22;8431;52.458;9.998;2022-09-09T08:04:10;16.60;99.90
16635;DHT22;8431;52.458;9.998;2022-09-09T08:06:42;16.50;99.90
16635;DHT22;8431;52.458;9.998;2022-09-09T08:09:10;16.50;99.90
16635;DHT22;8431;52.458;9.998;2022-09-09T08:11:39;16.50;99.90
16635;DHT22;8431;52.458;9.998;2022-09-09T08:14:06;16.50;99.90
16635;DHT22;8431;52.458;9.998;2022-09-09T08:16:36;16.60;99.90
16635;DHT22;8431;52.458;9.998;2022-09-09T08:19:05;16.60;99.90
16635;DHT22;8431;52.458;9.998;2022-09-09T08:21:33;16.60;99.90
16635;DHT22;8431;52.458;9.998;2022-09-09T08:24:03;16.60;99.90
16635;DHT22;8431;52.458;9.998;2022-09-09T08:26:31;16.60;99.90
16635;DHT22;8431;52.458;9.998;2022-09-09T08:29:09;16.60;99.90
16635;DHT22;8431;52.458;9.998;2022-09-09T08:31:45;16.70;99.90
16635;DHT22;8431;52.458;9.998;2022-09-09T08:37:16;16.90;99.90
16635;DHT22;8431;52.458;9.998;2022-09-09T08:40:58;17.10;99.90
16635;DHT22;8431;52.458;9.998;2022-09-09T08:43:47;17.20;99.90
16635;DHT22;8431;52.458;9.998;2022-09-09T08:46:38;17.40;99.90
16635;DHT22;8431;52.458;9.998;2022-09-09T08:49:52;17.70;99.90
16635;DHT22;8431;52.458;9.998;2022-09-09T08:55:41;18.00;99.90
16635;DHT22;8431;52.458;9.998;2022-09-09T08:58:17;18.10;99.90
16635;DHT22;8431;52.458;9.998;2022-09-09T09:01:03;18.40;99.90
16635;DHT22;8431;52.458;9.998;2022-09-09T09:03:47;18.60;99.90
16635;DHT22;8431;52.458;9.998;2022-09-09T09:06:39;18.80;99.90
16635;DHT22;8431;52.458;9.998;2022-09-09T09:09:23;18.90;99.90
16635;DHT22;8431;52.458;9.998;2022-09-09T09:12:01;18.90;99.90
16635;DHT22;8431;52.458;9.998;2022-09-09T09:14:34;18.90;99.90
16635;DHT22;8431;52.458;9.998;2022-09-09T09:17:04;18.90;99.90
16635;DHT22;8431;52.458;9.998;2022-09-09T09:19:54;19.10;99.90
16635;DHT22;8431;52.458;9.998;2022-09-09T09:22:40;19.30;99.90
16635;DHT22;8431;52.458;9.998;2022-09-09T09:25:22;19.50;99.90
16635;DHT22;8431;52.458;9.998;2022-09-09T09:28:01;19.60;99.90
16635;DHT22;8431;52.458;9.998;2022-09-09T09:30:52;19.70;99.90
16635;DHT22;8431;52.458;9.998;2022-09-09T09:33:45;19.70;99.90
16635;DHT22;8431;52.458;9.998;2022-09-09T09:36:19;19.80;99.90
16635;DHT22;8431;52.458;9.998;2022-09-09T09:46:28;20.20;99.90
16635;DHT22;8431;52.458;9.998;2022-09-09T09:49:03;20.20;99.90
16635;DHT22;8431;52.458;9.998;2022-09-09T09:51:42;20.10;99.90
16635;DHT22;8431;52.458;9.998;2022-09-09T09:54:22;20.10;99.90
16635;DHT22;8431;52.458;9.998;2022-09-09T09:56:53;20.10;99.90
16635;DHT22;8431;52.458;9.998;2022-09-09T09:59:37;20.10;99.90
16635;DHT22;8431;52.458;9.998;2022-09-09T10:02:38;20.30;99.90
16635;DHT22;8431;52.458;9.998;2022-09-09T10:05:36;20.30;99.90
16635;DHT22;8431;52.458;9.998;2022-09-09T10:11:44;20.40;99.90
16635;DHT22;8431;52.458;9.998;2022-09-09T10:36:08;19.70;99.90
16635;DHT22;8431;52.458;9.998;2022-09-09T10:49:36;20.10;99.90
16635;DHT22;8431;52.458;9.998;2022-09-09T10:59:38;19.90;99.90
16635;DHT22;8431;52.458;9.998;2022-09-09T11:03:11;19.60;99.90
16635;DHT22;8431;52.458;9.998;2022-09-09T11:06:05;19.40;99.90
16635;DHT22;8431;52.458;9.998;2022-09-09T11:08:39;19.20;99.90
16635;DHT22;8431;52.458;9.998;2022-09-09T11:11:13;19.00;99.90
16635;DHT22;8431;52.458;9.998;2022-09-09T11:13:48;19.00;99.90
16635;DHT22;8431;52.458;9.998;2022-09-09T11:16:27;19.10;99.90
16635;DHT22;8431;52.458;9.998;2022-09-09T11:19:14;19.00;99.90
16635;DHT22;8431;52.458;9.998;2022-09-09T11:25:36;19.20;99.90
16635;DHT22;8431;52.458;9.998;2022-09-09T11:28:32;19.20;99.90
16635;DHT22;8431;52.458;9.998;2022-09-09T11:31:25;19.40;99.90
16635;DHT22;8431;52.458;9.998;2022-09-09T11:34:44;19.80;99.90
16635;DHT22;8431;52.458;9.998;2022-09-09T11:40:30;20.70;99.90
16635;DHT22;8431;52.458;9.998;2022-09-09T11:43:11;20.80;99.90
16635;DHT22;8431;52.458;9.998;2022-09-09T11:46:04;20.90;99.90
16635;DHT22;8431;52.458;9.998;2022-09-09T11:52:10;20.50;99.90
16635;DHT22;8431;52.458;9.998;2022-09-09T11:54:57;20.20;99.90
16635;DHT22;8431;52.458;9.998;2022-09-09T11:57:47;20.10;99.90
16635;DHT22;8431;52.458;9.998;2022-09-09T12:00:34;20.10;99.90
16635;DHT22;8431;52.458;9.998;2022-09-09T12:03:48;20.00;99.90
16635;DHT22;8431;52.458;9.998;2022-09-09T12:06:11;19.70;99.90
16635;DHT22;8431;52.458;9.998;2022-09-09T12:08:57;19.30;99.90
16635;DHT22;8431;52.458;9.998;2022-09-09T12:11:29;18.80;99.90
16635;DHT22;8431;52.458;9.998;2022-09-09T12:14:01;18.50;99.90
16635;DHT22;8431;52.458;9.998;2022-09-09T12:16:33;18.10;99.90
16635;DHT22;8431;52.458;9.998;2022-09-09T12:19:19;17.80;99.90
16635;DHT22;8431;52.458;9.998;2022-09-09T12:22:05;17.70;99.90
16635;DHT22;8431;52.458;9.998;2022-09-09T12:24:39;17.70;99.90
16635;DHT22;8431;52.458;9.998;2022-09-09T12:27:15;17.60;99.90
16635;DHT22;8431;52.458;9.998;2022-09-09T12:29:57;17.40;99.90
16635;DHT22;8431;52.458;9.998;2022-09-09T12:32:41;17.40;99.90
16635;DHT22;8431;52.458;9.998;2022-09-09T12:35:13;17.40;99.90
16635;DHT22;8431;52.458;9.998;2022-09-09T12:37:50;17.40;99.90
16635;DHT22;8431;52.458;9.998;2022-09-09T12:47:35;17.30;99.90
16635;DHT22;8431;52.458;9.998;2022-09-09T12:50:10;17.30;99.90
16635;DHT22;8431;52.458;9.998;2022-09-09T12:52:42;17.30;99.90
16635;DHT22;8431;52.458;9.998;2022-09-09T12:57:09;17.40;99.90
16635;DHT22;8431;52.458;9.998;2022-09-09T12:59:34;17.60;99.90
16635;DHT22;8431;52.458;9.998;2022-09-09T13:02:25;18.20;99.90
16635;DHT22;8431;52.458;9.998;2022-09-09T13:05:06;18.80;99.90
16635;DHT22;8431;52.458;9.998;2022-09-09T13:07:39;19.30;99.90
16635;DHT22;8431;52.458;9.998;2022-09-09T13:10:20;19.60;99.90
16635;DHT22;8431;52.458;9.998;2022-09-09T13:12:55;20.00;99.90
16635;DHT22;8431;52.458;9.998;2022-09-09T13:15:26;20.30;99.90
16635;DHT22;8431;52.458;9.998;2022-09-09T13:17:58;20.60;99.90
16635;DHT22;8431;52.458;9.998;2022-09-09T13:20:32;20.70;99.90
16635;DHT22;8431;52.458;9.998;2022-09-09T13:23:00;20.70;99.90
16635;DHT22;8431;52.458;9.998;2022-09-09T13:26:18;20.80;99.90
16635;DHT22;8431;52.458;9.998;2022-09-09T13:29:20;20.70;99.90
16635;DHT22;8431;52.458;9.998;2022-09-09T13:32:21;20.60;99.90
16635;DHT22;8431;52.458;9.998;2022-09-09T13:35:23;20.60;99.90
16635;DHT22;8431;52.458;9.998;2022-09-09T13:37:52;20.70;99.90
16635;DHT22;8431;52.458;9.998;2022-09-09T13:40:21;20.60;99.90
16635;DHT22;8431;52.458;9.998;2022-09-09T13:42:52;20.50;99.90
16635;DHT22;8431;52.458;9.998;2022-09-09T13:45:24;20.50;99.90
16635;DHT22;8431;52.458;9.998;2022-09-09T13:48:09;20.50;99.90
16635;DHT22;8431;52.458;9.998;2022-09-09T13:50:41;20.60;99.90
16635;DHT22;8431;52.458;9.998;2022-09-09T13:53:20;20.80;99.90
16635;DHT22;8431;52.458;9.998;2022-09-09T13:55:50;20.70;99.90
16635;DHT22;8431;52.458;9.998;2022-09-09T13:58:18;20.70;99.90
16635;DHT22;8431;52.458;9.998;2022-09-09T14:00:56;20.80;99.90
16635;DHT22;8431;52.458;9.998;2022-09-09T14:03:31;20.90;99.90
16635;DHT22;8431;52.458;9.998;2022-09-09T14:06:07;20.90;99.90
16635;DHT22;8431;52.458;9.998;2022-09-09T14:08:35;20.70;99.90
16635;DHT22;8431;52.458;9.998;2022-09-09T14:11:04;20.40;99.90
16635;DHT22;8431;52.458;9.998;2022-09-09T14:13:42;20.20;99.90
16635;DHT22;8431;52.458;9.998;2022-09-09T14:16:10;20.00;99.90
16635;DHT22;8431;52.458;9.998;2022-09-09T14:18:40;19.80;99.90
16635;DHT22;8431;52.458;9.998;2022-09-09T14:21:09;19.60;99.90
16635;DHT22;8431;52.458;9.998;2022-09-09T14:23:55;19.50;99.90
16635;DHT22;8431;52.458;9.998;2022-09-09T14:26:36;19.30;99.90
16635;DHT22;8431;52.458;9.998;2022-09-09T14:29:14;19.10;99.90
16635;DHT22;8431;52.458;9.998;2022-09-09T14:31:41;18.90;99.90
16635;DHT22;8431;52.458;9.998;2022-09-09T14:34:41;18.80;99.90
16635;DHT22;8431;52.458;9.998;2022-09-09T14:37:18;18.80;99.90
16635;DHT22;8431;52.458;9.998;2022-09-09T14:39:58;18.90;99.90
16635;DHT22;8431;52.458;9.998;2022-09-09T14:42:30;19.10;99.90
16635;DHT22;8431;52.458;9.998;2022-09-09T14:44:58;19.30;99.90
16635;DHT22;8431;52.458;9.998;2022-09-09T14:47:26;19.40;99.90
16635;DHT22;8431;52.458;9.998;2022-09-09T14:49:56;19.60;99.90
16635;DHT22;8431;52.458;9.998;2022-09-09T14:52:26;19.70;99.90
16635;DHT22;8431;52.458;9.998;2022-09-09T14:54:55;19.80;99.90
16635;DHT22;8431;52.458;9.998;2022-09-09T14:57:24;19.80;99.90
16635;DHT22;8431;52.458;9.998;2022-09-09T14:59:51;19.70;99.90
16635;DHT22;8431;52.458;9.998;2022-09-09T15:02:18;19.70;99.90
16635;DHT22;8431;52.458;9.998;2022-09-09T15:04:45;19.80;99.90
16635;DHT22;8431;52.458;9.998;2022-09-09T15:07:12;19.80;99.90
16635;DHT22;8431;52.458;9.998;2022-09-09T15:09:51;19.90;99.90
16635;DHT22;8431;52.458;9.998;2022-09-09T15:12:24;20.10;99.90
16635;DHT22;8431;52.458;9.998;2022-09-09T15:15:05;20.20;99.90
16635;DHT22;8431;52.458;9.998;2022-09-09T15:17:33;20.40;99.90
16635;DHT22;8431;52.458;9.998;2022-09-09T15:20:01;20.60;99.90
16635;DHT22;8431;52.458;9.998;2022-09-09T15:22:28;20.80;99.90
16635;DHT22;8431;52.458;9.998;2022-09-09T15:25:04;20.80;99.90
16635;DHT22;8431;52.458;9.998;2022-09-09T15:27:36;20.80;99.90
16635;DHT22;8431;52.458;9.998;2022-09-09T15:30:06;20.90;99.90
16635;DHT22;8431;52.458;9.998;2022-09-09T15:32:33;20.90;99.90
16635;DHT22;8431;52.458;9.998;2022-09-09T15:35:00;20.90;99.90
16635;DHT22;8431;52.458;9.998;2022-09-09T15:37:28;21.00;99.90
16635;DHT22;8431;52.458;9.998;2022-09-09T15:39:55;21.10;99.90
16635;DHT22;8431;52.458;9.998;2022-09-09T15:42:51;21.20;99.90
16635;DHT22;8431;52.458;9.998;2022-09-09T15:45:32;21.20;99.90
16635;DHT22;8431;52.458;9.998;2022-09-09T15:48:00;21.10;99.90
16635;DHT22;8431;52.458;9.998;2022-09-09T15:50:32;21.00;99.90
16635;DHT22;8431;52.458;9.998;2022-09-09T15:53:03;21.10;99.90
16635;DHT22;8431;52.458;9.998;2022-09-09T15:55:32;20.90;99.90
16635;DHT22;8431;52.458;9.998;2022-09-09T15:58:21;20.70;99.90
16635;DHT22;8431;52.458;9.998;2022-09-09T16:01:06;20.40;99.90
16635;DHT22;8431;52.458;9.998;2022-09-09T16:03:51;20.20;99.90
16635;DHT22;8431;52.458;9.998;2022-09-09T16:06:39;19.90;99.90
16635;DHT22;8431;52.458;9.998;2022-09-09T16:09:10;19.60;99.90
16635;DHT22;8431;52.458;9.998;2022-09-09T16:11:39;19.40;99.90
16635;DHT22;8431;52.458;9.998;2022-09-09T16:14:08;19.20;99.90
16635;DHT22;8431;52.458;9.998;2022-09-09T16:16:43;19.10;99.90
16635;DHT22;8431;52.458;9.998;2022-09-09T16:19:11;19.00;99.90
16635;DHT22;8431;52.458;9.998;2022-09-09T16:21:48;19.00;99.90
16635;DHT22;8431;52.458;9.998;2022-09-09T16:24:18;19.10;99.90
16635;DHT22;8431;52.458;9.998;2022-09-09T16:26:48;19.10;99.90
16635;DHT22;8431;52.458;9.998;2022-09-09T16:29:18;19.10;99.90
16635;DHT22;8431;52.458;9.998;2022-09-09T16:31:46;19.10;99.90
16635;DHT22;8431;52.458;9.998;2022-09-09T16:34:21;19.10;99.90
16635;DHT22;8431;52.458;9.998;2022-09-09T16:36:51;19.10;99.90
16635;DHT22;8431;52.458;9.998;2022-09-09T16:39:19;19.20;99.90
16635;DHT22;8431;52.458;9.998;2022-09-09T16:41:48;19.30;99.90
16635;DHT22;8431;52.458;9.998;2022-09-09T16:44:17;19.20;99.90
16635;DHT22;8431;52.458;9.998;2022-09-09T16:46:46;19.20;99.90
16635;DHT22;8431;52.458;9.998;2022-09-09T16:49:14;19.10;99.90
16635;DHT22;8431;52.458;9.998;2022-09-09T16:51:43;19.10;99.90
16635;DHT22;8431;52.458;9.998;2022-09-09T16:54:11;19.00;99.90
16635;DHT22;8431;52.458;9.998;2022-09-09T16:56:47;18.90;99.90
16635;DHT22;8431;52.458;9.998;2022-09-09T16:59:21;18.70;99.90
16635;DHT22;8431;52.458;9.998;2022-09-09T17:01:58;18.50;99.90
16635;DHT22;8431;52.458;9.998;2022-09-09T17:04:41;18.20;99.90
16635;DHT22;8431;52.458;9.998;2022-09-09T17:07:09;18.00;99.90
16635;DHT22;8431;52.458;9.998;2022-09-09T17:09:39;17.90;99.90
16635;DHT22;8431;52.458;9.998;2022-09-09T17:12:14;17.70;99.90
16635;DHT22;8431;52.458;9.998;2022-09-09T17:14:46;17.50;99.90
16635;DHT22;8431;52.458;9.998;2022-09-09T17:17:22;17.40;99.90
16635;DHT22;8431;52.458;9.998;2022-09-09T17:20:05;17.30;99.90
16635;DHT22;8431;52.458;9.998;2022-09-09T17:22:36;17.10;99.90
16635;DHT22;8431;52.458;9.998;2022-09-09T17:25:04;17.00;99.90
16635;DHT22;8431;52.458;9.998;2022-09-09T17:27:31;16.90;99.90
16635;DHT22;8431;52.458;9.998;2022-09-09T17:30:00;16.80;99.90
16635;DHT22;8431;52.458;9.998;2022-09-09T17:32:28;16.70;99.90
16635;DHT22;8431;52.458;9.998;2022-09-09T17:34:56;16.60;99.90
16635;DHT22;8431;52.458;9.998;2022-09-09T17:37:30;16.60;99.90
16635;DHT22;8431;52.458;9.998;2022-09-09T17:39:57;16.60;99.90
16635;DHT22;8431;52.458;9.998;2022-09-09T17:42:24;16.70;99.90
16635;DHT22;8431;52.458;9.998;2022-09-09T17:44:52;16.70;99.90
16635;DHT22;8431;52.458;9.998;2022-09-09T17:47:20;16.80;99.90
16635;DHT22;8431;52.458;9.998;2022-09-09T17:49:51;16.80;99.90